Little York, IL (61453)

12:53 PM CDT on September 22, 2014 (GMT -0500)
Kirkwood | Change Station
CLOSE
Current Station
Personal Weather Station
Location: Kirkwood, IL
Elevation: 732 ft
Nearby Weather Stations

Elev 732 ft 40.85 °N, 90.75 °W | Updated 20 minutes ago

Clear
Clear
64.1 °F
Feels Like 64.1 °F
N
4.0
Wind Variable Wind from ENE
Gusts 9.0 mph

Today
High -- | Low -- °F
--% Chance of Precip.
Yesterday
High -- | Low -- °F
Precip. -- in
6:50 AM 7:00 PM
Waning Crescent, 2% visible
Pressure 30.31 in
Visibility 10.0 miles
Clouds Clear
Dew Point 40 °F
Humidity 42%
Rainfall 0.00 in
Snow Depth Not available.
UV 7 out of 12
Pollen 4.40 out of 12
Air Quality Not available.
Flu Activity Not available.
METAR KGBG 221735Z AUTO 02005KT 10SM CLR 21/08 A3031 RMK AO2 T02110078

More Conditions Fewer Conditions

Pressure 30.31 in
Visibility 10.0 miles
Clouds Clear
Dew Point 40 °F
Humidity 42%
Rainfall 0.00 in
Snow Depth Not available.
UV 7 out of 12
Pollen 4.40 out of 12
Air Quality Not available.
Flu Activity Not available.
METAR KGBG 221735Z AUTO 02005KT 10SM CLR 21/08 A3031 RMK AO2 T02110078

More Conditions Fewer Conditions

10-Day Weather Forecast

Almanac

Astronomy

Sep. 22, 2014 Rise Set
Actual Time 6:50 AM CDT 7:00 PM CDT
Civil Twilight 6:23 AM CDT 7:27 PM CDT
Nautical Twilight 5:50 AM CDT 7:59 PM CDT
Astronomical Twilight 5:18 AM CDT 8:32 PM CDT
Moon 5:18 AM CDT 6:08 PM CDT
Length of Visible Light 13h 04m
Length of Day
12h 09m
Tomorrow will be 2m 43s shorter.
Waning Crescent, 2% of the Moon is Illuminated
Today
Waning Crescent
Sep 24
New
Oct 1
First Quarter
Oct 8
Full
Oct 15
Last Quarter

Today's Extremes

State Highs State Lows

Community

WunderPhotos

Upload Photos

1,755,494 photos uploaded!

WunderBlogs® & News

Nearby

Snow Depth

Station Depth Elevation
No new snow has been reported.

Earthquake Activity

City Distance Mag. Time & Date
No recent earthquake activity has been reported nearby.
Minimum magnitude displayed is 2.5.

Coastal Water Temperatures

Place Temperature
No Stations Reporting

Nearby Weather Stations